Time;durP1;ratioP1;P1;durP2;ratioP2;P2;SDS_P1;SDS_P2;PMS_P1;PMS_P2;Temp;Humidity;BMP_temperature;BMP_pressure;BME280_temperature;BME280_humidity;BME280_pressure;Samples;Min_cycle;Max_cycle;Signal;HPM_P1;HPM_P2
2021/08/31 00:02:15;;;;;;;9.00;7.93;;;14.30;99.90;;;;;;5056673;28;20465;-73
2021/08/31 00:04:42;;;;;;;11.43;8.33;;;14.30;99.90;;;;;;5055733;28;20489;-73
2021/08/31 00:07:09;;;;;;;9.90;7.60;;;14.30;99.90;;;;;;5056747;28;20505;-73
2021/08/31 00:09:37;;;;;;;9.60;8.50;;;14.30;99.90;;;;;;5056511;28;20455;-73
2021/08/31 00:12:04;;;;;;;10.47;8.70;;;14.30;99.90;;;;;;5056309;28;20504;-73
2021/08/31 00:14:31;;;;;;;9.33;7.90;;;14.30;99.90;;;;;;5056219;28;20463;-73
2021/08/31 00:16:58;;;;;;;9.90;7.93;;;14.30;99.90;;;;;;5056536;28;20489;-73
2021/08/31 00:19:24;;;;;;;9.20;7.77;;;14.30;99.90;;;;;;5056907;28;20466;-73
2021/08/31 00:21:51;;;;;;;9.23;8.10;;;14.30;99.90;;;;;;5056504;28;20471;-73
2021/08/31 00:24:18;;;;;;;8.53;7.67;;;14.30;99.90;;;;;;5056252;28;20496;-73
2021/08/31 00:26:46;;;;;;;10.40;8.60;;;14.30;99.90;;;;;;5056440;28;20486;-73
2021/08/31 00:29:13;;;;;;;12.50;8.10;;;14.30;99.90;;;;;;5056823;28;20470;-73
2021/08/31 00:31:39;;;;;;;8.77;7.87;;;14.30;99.90;;;;;;5056448;28;20492;-73
2021/08/31 00:34:06;;;;;;;9.03;7.90;;;14.30;99.90;;;;;;5056101;28;20489;-73
2021/08/31 00:36:33;;;;;;;12.60;9.50;;;14.30;99.90;;;;;;5056383;28;20478;-73
2021/08/31 00:39:00;;;;;;;16.33;9.03;;;14.30;99.90;;;;;;5055896;28;20470;-73
2021/08/31 00:41:27;;;;;;;10.67;9.07;;;14.30;99.90;;;;;;5056312;28;20458;-73
2021/08/31 00:43:55;;;;;;;11.17;9.20;;;14.20;99.90;;;;;;5055281;28;20479;-73
2021/08/31 00:46:22;;;;;;;9.40;8.40;;;14.30;99.90;;;;;;5056302;28;20482;-73
2021/08/31 00:48:51;;;;;;;10.13;8.97;;;14.30;99.90;;;;;;5056006;28;20467;-73
2021/08/31 00:51:21;;;;;;;13.53;8.60;;;14.30;99.90;;;;;;5056331;28;20462;-73
2021/08/31 00:53:48;;;;;;;12.50;9.77;;;14.30;99.90;;;;;;5055317;28;20459;-73
2021/08/31 00:56:16;;;;;;;12.73;10.03;;;14.30;99.90;;;;;;5054703;28;20550;-73
2021/08/31 00:58:43;;;;;;;11.27;9.20;;;14.30;99.90;;;;;;5052599;28;20498;-73
2021/08/31 01:01:11;;;;;;;12.17;8.60;;;14.20;99.90;;;;;;5053060;28;20466;-73
2021/08/31 01:03:38;;;;;;;10.70;9.37;;;14.30;99.90;;;;;;5051954;28;20463;-73
2021/08/31 01:06:05;;;;;;;10.93;9.00;;;14.30;99.90;;;;;;5053010;28;20516;-72
2021/08/31 01:08:33;;;;;;;10.33;9.07;;;14.20;99.90;;;;;;5052533;28;20992;-73
2021/08/31 01:11:01;;;;;;;10.20;8.27;;;14.20;99.90;;;;;;5052751;28;20469;-73
2021/08/31 01:13:29;;;;;;;10.10;9.00;;;14.30;99.90;;;;;;5052301;28;20463;-73
2021/08/31 01:15:55;;;;;;;10.30;9.20;;;14.20;99.90;;;;;;5052993;28;20466;-73
2021/08/31 01:18:24;;;;;;;11.97;9.10;;;14.30;99.90;;;;;;5052761;28;20479;-73
2021/08/31 01:20:53;;;;;;;10.83;9.73;;;14.20;99.90;;;;;;5052853;28;20467;-73
2021/08/31 01:23:21;;;;;;;10.70;9.53;;;14.30;99.90;;;;;;5052233;28;20470;-73
2021/08/31 01:25:49;;;;;;;13.60;10.70;;;14.20;99.90;;;;;;5052431;28;20484;-73
2021/08/31 01:28:17;;;;;;;13.50;10.20;;;14.30;99.90;;;;;;5052685;28;20490;-73
2021/08/31 01:30:45;;;;;;;12.17;10.43;;;14.20;99.90;;;;;;5052405;28;20459;-73
2021/08/31 01:33:12;;;;;;;12.80;11.47;;;14.30;99.90;;;;;;5051999;28;20997;-73
2021/08/31 01:35:39;;;;;;;13.70;11.20;;;14.20;99.90;;;;;;5052195;28;20985;-73
2021/08/31 01:38:06;;;;;;;15.77;11.20;;;14.20;99.90;;;;;;5052389;28;20480;-73
2021/08/31 01:40:33;;;;;;;14.53;11.80;;;14.20;99.90;;;;;;5052343;28;20462;-73
2021/08/31 01:43:01;;;;;;;13.70;11.50;;;14.20;99.90;;;;;;5051671;28;20494;-73
2021/08/31 01:45:28;;;;;;;14.90;11.00;;;14.20;99.90;;;;;;5051923;28;20487;-73
2021/08/31 01:47:55;;;;;;;13.80;11.70;;;14.20;99.90;;;;;;5052014;28;20479;-73
2021/08/31 01:50:22;;;;;;;15.57;13.20;;;14.20;99.90;;;;;;5052328;28;20460;-73
2021/08/31 01:52:48;;;;;;;17.43;13.73;;;14.20;99.90;;;;;;5051626;28;20889;-73
2021/08/31 01:55:15;;;;;;;14.87;12.87;;;14.10;99.90;;;;;;5051891;28;20482;-73
2021/08/31 01:57:42;;;;;;;17.80;13.40;;;14.10;99.90;;;;;;5051584;28;20998;-73
2021/08/31 02:00:11;;;;;;;16.03;13.20;;;14.10;99.90;;;;;;5051981;28;20970;-73
2021/08/31 02:02:38;;;;;;;14.83;13.30;;;14.10;99.90;;;;;;5051451;28;20965;-73
2021/08/31 02:05:05;;;;;;;17.00;12.60;;;14.20;99.90;;;;;;5051287;28;20487;-73
2021/08/31 02:07:32;;;;;;;15.93;12.53;;;14.10;99.90;;;;;;5051414;28;21024;-73
2021/08/31 02:09:58;;;;;;;15.63;12.43;;;14.20;99.90;;;;;;5051450;28;21073;-73
2021/08/31 02:12:25;;;;;;;14.23;12.07;;;14.20;99.90;;;;;;5051653;28;20492;-73
2021/08/31 02:14:52;;;;;;;15.87;12.90;;;14.20;99.90;;;;;;5050782;28;20817;-73
2021/08/31 02:17:20;;;;;;;14.63;10.97;;;14.20;99.90;;;;;;5051576;28;20488;-73
2021/08/31 02:19:47;;;;;;;17.27;11.83;;;14.10;99.90;;;;;;5051122;28;20486;-74
2021/08/31 02:22:13;;;;;;;16.63;12.47;;;14.10;99.90;;;;;;5051497;28;20464;-73
2021/08/31 02:24:40;;;;;;;14.03;11.27;;;14.20;99.90;;;;;;5050557;28;20554;-73
2021/08/31 02:27:07;;;;;;;14.23;11.50;;;14.20;99.90;;;;;;5051210;28;20492;-73
2021/08/31 02:29:34;;;;;;;13.57;11.10;;;14.20;99.90;;;;;;5051622;28;20827;-73
2021/08/31 02:32:00;;;;;;;12.03;10.80;;;14.10;99.90;;;;;;5050953;28;20463;-73
2021/08/31 02:34:28;;;;;;;13.40;10.43;;;14.20;99.90;;;;;;5050657;28;20469;-73
2021/08/31 02:36:55;;;;;;;15.83;11.40;;;14.20;99.90;;;;;;5050737;28;20475;-73
2021/08/31 02:39:22;;;;;;;11.90;10.00;;;14.20;99.90;;;;;;5051001;28;20497;-73
2021/08/31 02:41:48;;;;;;;15.73;11.87;;;14.20;99.90;;;;;;5050689;28;20819;-73
2021/08/31 02:44:15;;;;;;;12.47;11.17;;;14.10;99.90;;;;;;5050296;28;20956;-73
2021/08/31 02:46:42;;;;;;;14.60;11.77;;;14.20;99.90;;;;;;5051004;28;20483;-73
2021/08/31 02:49:09;;;;;;;14.33;11.60;;;14.20;99.90;;;;;;5050876;28;20463;-73
2021/08/31 02:51:37;;;;;;;14.23;10.60;;;14.20;99.90;;;;;;5051197;28;20466;-73
2021/08/31 02:54:04;;;;;;;13.80;10.53;;;14.10;99.90;;;;;;5049961;28;20463;-73
2021/08/31 02:56:31;;;;;;;12.70;10.97;;;14.10;99.90;;;;;;5050838;28;20483;-73
2021/08/31 02:58:58;;;;;;;14.00;12.13;;;14.10;99.90;;;;;;5050477;28;20470;-73
2021/08/31 03:01:33;;;;;;;15.57;11.50;;;14.20;99.90;;;;;;5050831;28;20464;-73
2021/08/31 03:04:01;;;;;;;14.50;11.50;;;14.10;99.90;;;;;;5050266;28;20962;-73
2021/08/31 03:06:29;;;;;;;13.20;11.30;;;14.10;99.90;;;;;;5050770;28;20491;-73
2021/08/31 03:08:57;;;;;;;11.80;10.60;;;14.20;99.90;;;;;;5050722;28;20455;-73
2021/08/31 03:11:24;;;;;;;13.67;12.17;;;14.10;99.90;;;;;;5051045;28;20462;-73
2021/08/31 03:13:51;;;;;;;14.10;11.40;;;14.10;99.90;;;;;;5050097;28;20459;-73
2021/08/31 03:16:18;;;;;;;16.20;12.00;;;14.10;99.90;;;;;;5050927;28;20846;-73
2021/08/31 03:18:45;;;;;;;13.77;12.20;;;14.10;99.90;;;;;;5050747;28;20464;-73
2021/08/31 03:21:11;;;;;;;12.23;10.70;;;14.10;99.90;;;;;;5050335;28;20463;-73
2021/08/31 03:23:38;;;;;;;13.80;11.03;;;14.10;99.90;;;;;;5049763;28;20463;-73
2021/08/31 03:26:06;;;;;;;13.87;10.90;;;14.10;99.90;;;;;;5050470;28;20495;-73
2021/08/31 03:28:33;;;;;;;13.67;12.03;;;14.10;99.90;;;;;;5050639;28;20490;-73
2021/08/31 03:31:00;;;;;;;11.83;10.63;;;14.10;99.90;;;;;;5049864;28;21037;-73
2021/08/31 03:33:26;;;;;;;20.13;11.50;;;14.10;99.90;;;;;;5059682;28;20459;-73
2021/08/31 03:35:53;;;;;;;15.63;12.13;;;14.10;99.90;;;;;;5068480;28;20447;-73
2021/08/31 03:38:20;;;;;;;14.00;11.77;;;14.10;99.90;;;;;;5066416;28;20483;-74
2021/08/31 03:40:46;;;;;;;13.13;11.43;;;14.10;99.90;;;;;;5069163;28;20495;-73
2021/08/31 03:43:14;;;;;;;12.07;10.47;;;14.10;99.90;;;;;;5067153;28;20972;-73
2021/08/31 03:45:41;;;;;;;13.20;11.80;;;14.10;99.90;;;;;;5068406;28;20493;-73
2021/08/31 03:48:08;;;;;;;12.83;10.60;;;14.10;99.90;;;;;;5069838;28;20490;-73
2021/08/31 03:50:35;;;;;;;15.23;11.27;;;14.10;99.90;;;;;;5069784;28;20465;-74
2021/08/31 03:53:01;;;;;;;13.83;11.90;;;14.10;99.90;;;;;;5069414;28;20469;-74
2021/08/31 03:55:28;;;;;;;13.40;10.53;;;14.10;99.90;;;;;;5069155;28;20469;-73
2021/08/31 03:57:55;;;;;;;16.63;11.97;;;14.10;99.90;;;;;;5069903;28;20474;-74
2021/08/31 04:00:23;;;;;;;15.73;11.93;;;14.10;99.90;;;;;;5070127;28;20856;-73
2021/08/31 04:02:50;;;;;;;13.53;11.63;;;14.10;99.90;;;;;;5068778;28;20462;-73
2021/08/31 04:05:16;;;;;;;13.27;11.13;;;14.10;99.90;;;;;;5068111;28;20487;-73
2021/08/31 04:07:43;;;;;;;12.70;10.60;;;14.10;99.90;;;;;;5068281;28;20514;-74
2021/08/31 04:10:11;;;;;;;13.93;11.47;;;14.10;99.90;;;;;;5069596;28;20458;-73
2021/08/31 04:12:37;;;;;;;15.97;12.03;;;14.10;99.90;;;;;;5069740;28;20461;-73
2021/08/31 04:15:05;;;;;;;13.50;11.37;;;14.10;99.90;;;;;;5069559;28;20462;-74
2021/08/31 04:17:33;;;;;;;15.40;12.50;;;14.10;99.90;;;;;;5067413;28;20478;-72
2021/08/31 04:20:00;;;;;;;14.57;12.67;;;14.10;99.90;;;;;;5069513;28;20953;-73
2021/08/31 04:22:27;;;;;;;13.50;11.90;;;14.10;99.90;;;;;;5069871;28;20462;-73
2021/08/31 04:24:53;;;;;;;12.63;11.20;;;14.10;99.90;;;;;;5068309;28;20482;-73
2021/08/31 04:27:20;;;;;;;15.20;11.67;;;14.10;99.90;;;;;;5069146;28;20561;-73
2021/08/31 04:29:47;;;;;;;13.17;11.67;;;14.10;99.90;;;;;;5068666;28;20458;-73
2021/08/31 04:32:13;;;;;;;13.30;10.43;;;14.20;99.90;;;;;;5069873;28;20469;-73
2021/08/31 04:34:42;;;;;;;15.37;10.80;;;14.10;99.90;;;;;;5072199;28;20477;-73
2021/08/31 04:37:08;;;;;;;15.07;11.63;;;14.10;99.90;;;;;;5072612;28;20474;-73
2021/08/31 04:39:35;;;;;;;14.57;11.67;;;14.10;99.90;;;;;;5072929;28;20802;-73
2021/08/31 04:42:03;;;;;;;15.10;13.40;;;14.20;99.90;;;;;;5073175;28;20466;-73
2021/08/31 04:44:30;;;;;;;15.23;13.03;;;14.10;99.90;;;;;;5072555;28;20458;-73
2021/08/31 04:46:57;;;;;;;15.33;13.70;;;14.20;99.90;;;;;;5072703;28;20490;-73
2021/08/31 04:49:24;;;;;;;15.13;12.03;;;14.10;99.90;;;;;;5073441;28;20462;-73
2021/08/31 04:51:52;;;;;;;13.83;12.10;;;14.20;99.90;;;;;;5073354;28;20462;-73
2021/08/31 04:54:19;;;;;;;15.20;13.17;;;14.20;99.90;;;;;;5072690;28;20465;-73
2021/08/31 04:56:45;;;;;;;17.10;12.47;;;14.20;99.90;;;;;;5073193;28;20470;-73
2021/08/31 04:59:12;;;;;;;12.97;11.53;;;14.20;99.90;;;;;;5073115;28;20462;-73
2021/08/31 05:01:39;;;;;;;13.73;12.10;;;14.20;99.90;;;;;;5073684;28;20459;-73
2021/08/31 05:04:06;;;;;;;13.93;11.37;;;14.20;99.90;;;;;;5072317;28;20469;-73
2021/08/31 05:06:32;;;;;;;17.37;12.93;;;14.10;99.90;;;;;;5073380;28;20573;-73
2021/08/31 05:09:01;;;;;;;14.67;12.00;;;14.10;99.90;;;;;;5072799;28;20459;-73
2021/08/31 05:11:27;;;;;;;15.00;12.53;;;14.10;99.90;;;;;;5073324;28;20467;-73
2021/08/31 05:13:54;;;;;;;14.23;11.83;;;14.10;99.90;;;;;;5072283;28;20458;-73
2021/08/31 05:16:21;;;;;;;17.47;11.30;;;14.10;99.90;;;;;;5072974;28;20481;-73
2021/08/31 05:18:48;;;;;;;13.17;10.80;;;14.10;99.90;;;;;;5073063;28;20462;-73
2021/08/31 05:21:14;;;;;;;13.33;11.33;;;14.10;99.90;;;;;;5072689;28;20813;-73
2021/08/31 05:23:41;;;;;;;14.57;11.00;;;14.10;99.90;;;;;;5072335;28;20462;-73
2021/08/31 05:26:09;;;;;;;13.17;10.83;;;14.10;99.90;;;;;;5072471;28;20880;-73
2021/08/31 05:28:36;;;;;;;13.93;11.57;;;14.20;99.90;;;;;;5072964;28;20957;-73
2021/08/31 05:31:03;;;;;;;14.60;12.90;;;14.10;99.90;;;;;;5072618;28;20845;-73
2021/08/31 05:35:57;;;;;;;12.67;11.37;;;14.10;99.90;;;;;;5089222;28;20486;-66
2021/08/31 05:38:24;;;;;;;12.90;11.60;;;14.10;99.90;;;;;;5072455;28;20462;-68
2021/08/31 05:40:51;;;;;;;13.53;11.77;;;14.10;99.90;;;;;;5072573;28;20511;-68
2021/08/31 05:43:19;;;;;;;15.93;11.40;;;14.10;99.90;;;;;;5071502;28;20458;-68
2021/08/31 05:45:45;;;;;;;12.13;10.93;;;14.10;99.90;;;;;;5072090;28;20509;-68
2021/08/31 05:48:12;;;;;;;15.87;11.90;;;14.10;99.90;;;;;;5071783;28;20485;-68
2021/08/31 05:50:39;;;;;;;16.17;11.10;;;14.10;99.90;;;;;;5072342;28;20473;-68
2021/08/31 05:53:05;;;;;;;12.53;11.20;;;14.10;99.90;;;;;;5072087;28;20512;-68
2021/08/31 05:55:32;;;;;;;12.73;11.00;;;14.20;99.90;;;;;;5071782;28;20457;-68
2021/08/31 05:57:59;;;;;;;12.10;9.83;;;14.10;99.90;;;;;;5072242;28;20486;-68
2021/08/31 06:00:27;;;;;;;12.90;11.20;;;14.20;99.90;;;;;;5072155;28;20954;-68
2021/08/31 06:02:55;;;;;;;15.23;10.80;;;14.20;99.90;;;;;;5072332;28;20458;-68
2021/08/31 06:05:22;;;;;;;16.20;11.50;;;14.20;99.90;;;;;;5071415;28;20466;-68
2021/08/31 06:07:49;;;;;;;13.27;10.70;;;14.20;99.90;;;;;;5072034;28;20483;-68
2021/08/31 06:10:18;;;;;;;10.77;9.63;;;14.20;99.90;;;;;;5071718;28;20463;-68
2021/08/31 06:12:44;;;;;;;16.20;11.30;;;14.20;99.90;;;;;;5071896;28;20554;-68
2021/08/31 06:15:12;;;;;;;11.73;10.53;;;14.20;99.90;;;;;;5071191;28;20860;-68
2021/08/31 06:17:40;;;;;;;12.83;10.40;;;14.20;99.90;;;;;;5071847;28;20471;-68
2021/08/31 06:20:08;;;;;;;15.93;10.73;;;14.30;99.90;;;;;;5071625;28;20950;-68
2021/08/31 06:22:35;;;;;;;11.83;10.50;;;14.30;99.90;;;;;;5071487;28;20811;-68
2021/08/31 06:25:02;;;;;;;11.97;9.87;;;14.30;99.90;;;;;;5071120;28;20455;-67
2021/08/31 06:27:29;;;;;;;14.43;9.93;;;14.30;99.90;;;;;;5071281;28;20490;-67
2021/08/31 06:29:55;;;;;;;12.47;11.17;;;14.30;99.90;;;;;;5071860;28;20504;-68
2021/08/31 06:32:22;;;;;;;11.67;10.30;;;14.30;99.90;;;;;;5071299;28;20886;-68
2021/08/31 06:34:50;;;;;;;11.83;10.63;;;14.30;99.90;;;;;;5071197;28;20466;-67
2021/08/31 06:37:17;;;;;;;13.63;10.20;;;14.30;99.90;;;;;;5071050;28;20485;-68
2021/08/31 06:39:43;;;;;;;11.07;9.97;;;14.30;99.90;;;;;;5071484;28;20470;-68
2021/08/31 06:42:10;;;;;;;14.83;10.67;;;14.30;99.90;;;;;;5071344;28;20819;-67
2021/08/31 06:44:38;;;;;;;11.77;10.43;;;14.30;99.90;;;;;;5070780;28;21012;-68
2021/08/31 06:47:05;;;;;;;14.17;10.27;;;14.30;99.90;;;;;;5069255;28;20482;-68
2021/08/31 06:49:32;;;;;;;15.07;10.30;;;14.30;99.90;;;;;;5069695;28;20490;-68
2021/08/31 06:52:00;;;;;;;11.83;10.50;;;14.30;99.90;;;;;;5071152;28;20486;-68
2021/08/31 06:54:27;;;;;;;16.23;10.40;;;14.40;99.90;;;;;;5069843;28;20466;-68
2021/08/31 06:56:54;;;;;;;15.90;10.50;;;14.40;99.90;;;;;;5070845;28;20474;-68
2021/08/31 06:59:20;;;;;;;12.23;10.90;;;14.40;99.90;;;;;;5070572;28;20829;-68
2021/08/31 07:01:47;;;;;;;11.70;10.50;;;14.50;99.90;;;;;;5071195;28;20458;-68
2021/08/31 07:04:14;;;;;;;10.83;9.50;;;14.50;99.90;;;;;;5070160;28;20473;-68
2021/08/31 07:06:40;;;;;;;12.30;9.63;;;14.50;99.90;;;;;;5070877;28;20865;-68
2021/08/31 07:09:08;;;;;;;10.80;9.70;;;14.50;99.90;;;;;;5071107;28;20459;-68
2021/08/31 07:11:35;;;;;;;11.83;9.47;;;14.60;99.90;;;;;;5070799;28;20954;-68
2021/08/31 07:14:02;;;;;;;12.07;9.23;;;14.60;99.90;;;;;;5070093;28;20883;-68
2021/08/31 07:16:29;;;;;;;11.37;10.27;;;14.60;99.90;;;;;;5070697;28;20479;-68
2021/08/31 07:18:55;;;;;;;10.77;9.67;;;14.70;99.90;;;;;;5070211;28;20868;-68
2021/08/31 07:21:22;;;;;;;11.77;9.87;;;14.70;99.90;;;;;;5070648;28;20468;-68
2021/08/31 07:23:49;;;;;;;12.87;10.17;;;14.80;99.90;;;;;;5069997;28;20470;-68
2021/08/31 07:26:17;;;;;;;14.60;9.50;;;14.80;99.90;;;;;;5070760;28;20494;-68
2021/08/31 07:28:44;;;;;;;10.13;8.30;;;14.80;99.90;;;;;;5070585;28;20466;-68
2021/08/31 07:31:11;;;;;;;9.70;8.70;;;14.90;99.90;;;;;;5070806;28;20469;-68
2021/08/31 07:33:37;;;;;;;10.10;9.10;;;14.90;99.90;;;;;;5071104;28;20463;-68
2021/08/31 07:36:05;;;;;;;9.53;8.23;;;15.00;99.90;;;;;;5070795;28;20459;-68
2021/08/31 07:38:31;;;;;;;9.73;8.13;;;15.00;99.90;;;;;;5070634;28;20462;-68
2021/08/31 07:40:58;;;;;;;11.43;8.57;;;15.10;99.90;;;;;;5070856;28;20466;-68
2021/08/31 07:43:26;;;;;;;8.47;7.67;;;15.10;99.90;;;;;;5070358;28;20461;-68
2021/08/31 07:45:53;;;;;;;10.67;7.70;;;15.20;99.90;;;;;;5070305;28;20462;-68
2021/08/31 07:48:19;;;;;;;10.00;7.73;;;15.20;99.90;;;;;;5070370;28;20482;-68
2021/08/31 07:50:46;;;;;;;8.00;7.20;;;15.30;99.90;;;;;;5070300;28;20462;-68
2021/08/31 07:53:13;;;;;;;9.83;7.60;;;15.30;99.90;;;;;;5070186;28;20462;-68
2021/08/31 07:55:40;;;;;;;7.60;6.90;;;15.30;99.90;;;;;;5070019;28;20462;-68
2021/08/31 07:58:06;;;;;;;8.00;7.20;;;15.30;99.90;;;;;;5070343;28;20482;-68
2021/08/31 08:00:38;;;;;;;7.33;6.43;;;15.30;99.90;;;;;;5070446;28;20818;-68
2021/08/31 08:03:04;;;;;;;7.97;6.47;;;15.30;99.90;;;;;;5069966;28;20462;-68
2021/08/31 08:05:31;;;;;;;7.83;7.03;;;15.40;99.90;;;;;;5069718;28;20832;-68
2021/08/31 08:07:58;;;;;;;10.13;8.13;;;15.40;99.90;;;;;;5074025;28;20489;-68
2021/08/31 08:10:25;;;;;;;7.83;7.03;;;15.40;99.90;;;;;;5071611;28;20461;-68
2021/08/31 08:12:51;;;;;;;8.70;7.10;;;15.50;99.90;;;;;;5065079;28;20454;-68
2021/08/31 08:15:21;;;;;;;10.10;8.97;;;15.50;99.90;;;;;;5052967;28;20824;-68
2021/08/31 08:17:49;;;;;;;8.90;6.87;;;15.50;99.90;;;;;;5066700;28;20557;-68
2021/08/31 08:20:16;;;;;;;8.50;7.70;;;15.60;99.90;;;;;;5073137;28;20454;-68
2021/08/31 08:22:44;;;;;;;7.40;6.20;;;15.60;99.90;;;;;;5072446;28;20462;-68
2021/08/31 08:25:12;;;;;;;7.17;6.47;;;15.70;99.90;;;;;;5058626;28;20459;-67
2021/08/31 08:27:39;;;;;;;7.80;7.00;;;15.80;99.90;;;;;;5072991;28;20486;-68
2021/08/31 08:30:07;;;;;;;8.93;6.67;;;15.90;99.90;;;;;;5072765;28;20461;-67
2021/08/31 08:32:34;;;;;;;7.27;6.57;;;16.00;99.90;;;;;;5061961;28;20458;-67
2021/08/31 08:35:02;;;;;;;6.17;5.63;;;16.00;99.90;;;;;;5072526;28;20465;-67
2021/08/31 08:37:28;;;;;;;6.53;5.87;;;16.00;99.90;;;;;;5064168;28;20479;-67
2021/08/31 08:39:55;;;;;;;6.23;5.60;;;16.00;99.90;;;;;;5070348;28;20461;-67
2021/08/31 08:42:22;;;;;;;7.07;5.93;;;16.00;99.90;;;;;;5071951;28;20469;-67
2021/08/31 08:44:49;;;;;;;7.10;6.37;;;16.00;99.90;;;;;;5071550;28;20663;-67
2021/08/31 08:47:16;;;;;;;6.77;6.07;;;16.00;99.90;;;;;;5071898;28;20544;-67
2021/08/31 08:49:45;;;;;;;6.90;6.30;;;15.90;99.90;;;;;;5071915;28;20455;-67
2021/08/31 08:52:14;;;;;;;7.00;6.30;;;15.90;99.90;;;;;;5071600;28;20553;-67
2021/08/31 08:54:42;;;;;;;6.70;6.00;;;15.90;99.90;;;;;;5071044;28;20836;-67
2021/08/31 08:57:09;;;;;;;6.63;5.87;;;15.80;99.90;;;;;;5071664;28;20467;-67
2021/08/31 08:59:38;;;;;;;6.90;5.80;;;15.80;99.90;;;;;;5069274;28;20458;-67
2021/08/31 09:02:05;;;;;;;6.93;6.17;;;15.80;99.90;;;;;;5051499;28;20451;-67
2021/08/31 09:04:45;;;;;;;6.80;6.10;;;15.80;99.90;;;;;;5051935;28;20757;-67
2021/08/31 09:07:24;;;;;;;7.93;6.00;;;15.80;99.90;;;;;;5070519;28;21008;-67
2021/08/31 09:10:10;;;;;;;9.03;6.57;;;15.70;99.90;;;;;;5071823;28;20462;-67
2021/08/31 09:12:38;;;;;;;5.97;5.47;;;15.70;99.90;;;;;;5071348;28;20462;-67
2021/08/31 09:15:36;;;;;;;11.00;6.07;;;15.70;99.90;;;;;;5059072;28;20967;-67
2021/08/31 09:18:25;;;;;;;7.60;6.80;;;15.80;99.90;;;;;;5008533;28;20473;-67
2021/08/31 09:21:03;;;;;;;7.00;6.07;;;15.80;99.90;;;;;;5043551;28;20958;-67
2021/08/31 09:23:35;;;;;;;7.53;6.50;;;15.90;99.90;;;;;;5058810;28;20509;-67
2021/08/31 09:26:06;;;;;;;9.00;6.83;;;15.90;99.90;;;;;;5071456;28;20587;-67
2021/08/31 09:28:36;;;;;;;7.30;6.33;;;16.00;99.90;;;;;;5068869;28;20483;-67
2021/08/31 09:31:05;;;;;;;7.50;6.80;;;16.10;99.90;;;;;;5059985;28;20460;-67
2021/08/31 09:33:34;;;;;;;7.70;6.90;;;16.10;99.90;;;;;;5060558;28;20482;-67
2021/08/31 09:36:11;;;;;;;7.67;6.47;;;16.10;99.90;;;;;;5061468;28;20541;-67
2021/08/31 09:38:49;;;;;;;7.30;6.50;;;16.10;99.90;;;;;;5062327;28;20552;-67
2021/08/31 09:41:34;;;;;;;7.83;7.00;;;16.20;99.90;;;;;;5061330;28;20973;-67
2021/08/31 09:44:03;;;;;;;6.53;5.83;;;16.20;99.90;;;;;;5067005;28;20490;-67
2021/08/31 09:46:47;;;;;;;7.00;6.30;;;16.30;99.90;;;;;;5071124;28;20478;-67
2021/08/31 09:49:22;;;;;;;6.23;5.63;;;16.30;99.90;;;;;;5071258;28;21191;-67
2021/08/31 09:52:00;;;;;;;9.67;6.37;;;16.30;99.90;;;;;;5071005;28;20454;-66
2021/08/31 09:54:28;;;;;;;6.27;5.67;;;16.30;99.90;;;;;;5070559;28;20957;-67
2021/08/31 09:56:55;;;;;;;6.73;6.07;;;16.30;99.90;;;;;;5070807;28;20993;-67
2021/08/31 09:59:24;;;;;;;6.57;5.97;;;16.40;99.90;;;;;;5069041;28;20467;-67
2021/08/31 10:01:53;;;;;;;6.60;5.90;;;16.40;99.90;;;;;;5070630;28;20829;-67
2021/08/31 10:04:20;;;;;;;7.40;6.70;;;16.50;99.90;;;;;;5058414;28;20460;-66
2021/08/31 10:06:48;;;;;;;6.47;5.87;;;16.50;99.90;;;;;;5070113;28;20502;-67
2021/08/31 10:09:16;;;;;;;5.93;5.43;;;16.50;99.90;;;;;;5070554;28;20455;-66
2021/08/31 10:11:44;;;;;;;8.17;6.30;;;16.50;99.90;;;;;;5070887;28;20584;-66
2021/08/31 10:14:13;;;;;;;7.20;5.97;;;16.40;99.90;;;;;;5069764;28;20454;-67
2021/08/31 10:16:42;;;;;;;6.93;5.47;;;16.40;99.90;;;;;;5071434;28;20926;-67
2021/08/31 10:19:10;;;;;;;6.70;6.00;;;16.40;99.90;;;;;;5071033;28;20825;-67
2021/08/31 10:21:38;;;;;;;6.90;5.83;;;16.40;99.90;;;;;;5071377;28;20465;-67
2021/08/31 10:24:06;;;;;;;6.70;6.10;;;16.30;99.90;;;;;;5070015;28;20469;-67
2021/08/31 10:26:34;;;;;;;6.30;5.70;;;16.30;99.90;;;;;;5065564;28;20491;-66
2021/08/31 10:29:29;;;;;;;6.60;5.43;;;16.20;99.90;;;;;;5068936;28;20833;-67
2021/08/31 10:31:58;;;;;;;6.70;6.00;;;16.20;99.90;;;;;;5050281;28;20459;-67
2021/08/31 10:34:43;;;;;;;6.73;6.07;;;16.20;99.90;;;;;;5068499;28;21068;-67
2021/08/31 10:37:14;;;;;;;6.87;6.27;;;16.20;99.90;;;;;;5069161;28;20532;-67
2021/08/31 10:39:47;;;;;;;7.50;6.20;;;16.20;99.90;;;;;;5068879;28;20458;-67
2021/08/31 10:42:41;;;;;;;6.70;6.10;;;16.10;99.90;;;;;;5066166;28;20458;-67
2021/08/31 10:45:33;;;;;;;7.07;5.50;;;16.10;99.90;;;;;;5068153;28;20946;-67
2021/08/31 10:48:01;;;;;;;6.93;6.17;;;16.10;99.90;;;;;;5067972;28;20891;-67
2021/08/31 10:50:29;;;;;;;6.47;5.87;;;16.10;99.90;;;;;;5068869;28;20458;-66
2021/08/31 10:53:04;;;;;;;8.40;5.80;;;16.10;99.90;;;;;;5068546;28;20473;-67
2021/08/31 10:55:45;;;;;;;6.33;5.27;;;16.10;99.90;;;;;;5068130;28;20877;-66
2021/08/31 10:58:14;;;;;;;6.27;5.67;;;16.10;99.90;;;;;;5068270;28;20510;-67
2021/08/31 11:01:12;;;;;;;6.53;5.93;;;16.10;99.90;;;;;;5068190;28;20458;-67
2021/08/31 11:03:40;;;;;;;6.53;5.70;;;16.20;99.90;;;;;;5067797;28;20965;-66
2021/08/31 11:06:25;;;;;;;7.33;6.27;;;16.30;99.90;;;;;;5066981;28;20466;-66
2021/08/31 11:09:12;;;;;;;6.73;5.77;;;16.30;99.90;;;;;;5053160;28;20573;-67
2021/08/31 11:11:40;;;;;;;8.83;6.40;;;16.30;99.90;;;;;;5048371;28;20463;-67
2021/08/31 11:14:07;;;;;;;6.70;6.10;;;16.30;99.90;;;;;;5047520;28;20462;-67
2021/08/31 11:16:37;;;;;;;6.00;5.40;;;16.30;99.90;;;;;;5048407;28;20479;-68
2021/08/31 11:19:05;;;;;;;8.03;6.20;;;16.40;99.90;;;;;;5048493;28;20462;-66
2021/08/31 11:21:49;;;;;;;6.50;5.90;;;16.40;99.90;;;;;;5048748;28;20500;-67
2021/08/31 11:24:16;;;;;;;6.90;6.20;;;16.50;99.90;;;;;;5046747;28;20473;-67
2021/08/31 11:26:42;;;;;;;6.10;5.50;;;16.60;99.90;;;;;;5047561;28;20487;-67
2021/08/31 11:29:10;;;;;;;5.80;5.30;;;16.60;99.90;;;;;;5065912;28;20486;-67
2021/08/31 11:31:39;;;;;;;7.77;6.17;;;16.70;99.90;;;;;;5067786;28;20813;-67
2021/08/31 11:34:11;;;;;;;5.83;5.33;;;16.60;99.90;;;;;;5066703;28;20462;-67
2021/08/31 11:36:39;;;;;;;7.00;5.00;;;16.70;99.90;;;;;;5068205;28;20474;-67
2021/08/31 11:39:07;;;;;;;7.00;5.80;;;16.80;99.90;;;;;;5067571;28;20455;-67
2021/08/31 11:41:36;;;;;;;6.10;5.57;;;16.70;99.90;;;;;;5067131;28;20472;-66
2021/08/31 11:44:10;;;;;;;7.13;5.90;;;16.70;99.90;;;;;;5066487;28;20469;-66
2021/08/31 11:46:39;;;;;;;6.20;5.43;;;16.80;99.90;;;;;;5067420;28;20486;-68
2021/08/31 11:49:12;;;;;;;6.00;5.40;;;16.80;99.90;;;;;;5067471;28;20482;-68
2021/08/31 11:51:40;;;;;;;5.90;5.40;;;16.80;99.90;;;;;;5067969;28;20816;-66
2021/08/31 11:54:08;;;;;;;6.57;5.87;;;16.80;99.90;;;;;;5066140;28;20465;-66
2021/08/31 11:56:35;;;;;;;7.10;6.27;;;16.70;99.90;;;;;;5067483;28;20489;-68
2021/08/31 11:59:02;;;;;;;5.50;5.00;;;16.80;99.90;;;;;;5067050;28;20810;-68
2021/08/31 12:01:30;;;;;;;6.37;5.77;;;16.80;99.90;;;;;;5067284;28;20462;-69
2021/08/31 12:04:15;;;;;;;6.60;5.30;;;16.80;99.90;;;;;;5066631;28;20464;-68
2021/08/31 12:06:44;;;;;;;7.40;6.47;;;16.80;99.90;;;;;;5067393;28;20854;-68
2021/08/31 12:09:11;;;;;;;5.40;4.93;;;16.80;99.90;;;;;;5067056;28;20569;-68
2021/08/31 12:11:38;;;;;;;6.07;5.47;;;16.80;99.90;;;;;;5067183;28;20459;-68
2021/08/31 12:14:05;;;;;;;6.40;5.70;;;16.80;99.90;;;;;;5066208;28;20462;-68
2021/08/31 12:16:32;;;;;;;6.73;6.13;;;16.90;99.90;;;;;;5067146;28;20489;-68
2021/08/31 12:19:14;;;;;;;8.30;6.30;;;16.90;99.90;;;;;;5067223;28;20455;-68
2021/08/31 12:21:41;;;;;;;8.60;6.50;;;17.00;99.90;;;;;;5067468;28;20463;-68
2021/08/31 12:24:13;;;;;;;6.13;5.60;;;17.20;99.90;;;;;;5065876;28;20470;-69
2021/08/31 12:26:39;;;;;;;6.90;6.10;;;17.30;99.90;;;;;;5067449;28;20528;-68
2021/08/31 12:29:08;;;;;;;5.40;4.90;;;17.40;99.90;;;;;;5066871;28;20486;-68
2021/08/31 12:31:36;;;;;;;6.30;5.70;;;17.50;99.90;;;;;;5067122;28;20463;-68
2021/08/31 12:34:20;;;;;;;6.10;5.50;;;17.50;99.90;;;;;;5066304;28;20470;-68
2021/08/31 12:36:46;;;;;;;5.53;5.03;;;17.50;99.90;;;;;;5066339;28;20478;-68
2021/08/31 12:39:24;;;;;;;6.70;6.00;;;17.60;99.90;;;;;;5066570;28;20458;-68
2021/08/31 12:41:51;;;;;;;6.30;5.70;;;17.60;99.90;;;;;;5067094;28;21170;-68
2021/08/31 12:44:20;;;;;;;6.20;5.57;;;17.70;99.90;;;;;;5066053;28;20469;-68
2021/08/31 12:46:48;;;;;;;6.20;5.60;;;17.70;99.90;;;;;;5066693;28;20512;-68